createdAt,value
2017-09-18T00:00:57.981Z,41.66
2017-09-18T00:03:25.561Z,41.85
2017-09-18T00:05:53.313Z,42.21
2017-09-18T00:08:20.913Z,42.39
2017-09-18T00:10:48.459Z,42.82
2017-09-18T00:13:16.054Z,42.86
2017-09-18T00:15:43.647Z,43.11
2017-09-18T00:18:11.215Z,43.12
2017-09-18T00:20:38.990Z,43.40
2017-09-18T00:23:06.611Z,43.64
2017-09-18T00:25:34.122Z,43.48
2017-09-18T00:28:01.931Z,43.41
2017-09-18T00:30:29.517Z,43.14
2017-09-18T00:32:57.067Z,42.94
2017-09-18T00:35:24.650Z,43.32
2017-09-18T00:37:52.278Z,43.46
2017-09-18T00:40:19.819Z,43.02
2017-09-18T00:42:47.361Z,42.75
2017-09-18T00:45:14.955Z,43.07
2017-09-18T00:47:42.479Z,43.41
2017-09-18T00:50:10.055Z,43.37
2017-09-18T00:52:37.701Z,43.25
2017-09-18T00:55:05.309Z,43.30
2017-09-18T00:57:33.138Z,43.46
2017-09-18T01:00:00.793Z,43.80
2017-09-18T01:02:28.414Z,44.12
2017-09-18T01:04:55.962Z,44.33
2017-09-18T01:07:23.556Z,44.42
2017-09-18T01:09:51.181Z,44.73
2017-09-18T01:12:18.975Z,45.30
2017-09-18T01:14:46.617Z,45.52
2017-09-18T01:17:14.211Z,45.40
2017-09-18T01:19:41.762Z,45.97
2017-09-18T01:22:09.548Z,45.96
2017-09-18T01:24:37.150Z,45.96
2017-09-18T01:27:04.911Z,46.39
2017-09-18T01:29:32.706Z,47.12
2017-09-18T01:32:00.294Z,47.04
2017-09-18T01:34:27.865Z,47.01
2017-09-18T01:36:55.413Z,46.73
2017-09-18T01:39:23.049Z,47.09
2017-09-18T01:41:50.586Z,47.29
2017-09-18T01:44:18.187Z,47.49
2017-09-18T01:46:45.812Z,48.04
2017-09-18T01:49:13.563Z,48.07
2017-09-18T01:51:41.139Z,48.25
2017-09-18T01:54:08.763Z,48.50
2017-09-18T01:56:36.556Z,48.71
2017-09-18T01:59:04.182Z,48.54
2017-09-18T02:01:31.840Z,48.51
2017-09-18T02:03:59.598Z,48.69
2017-09-18T02:06:27.197Z,48.81
2017-09-18T02:08:54.818Z,48.55
2017-09-18T02:11:24.192Z,48.75
2017-09-18T02:13:51.749Z,49.30
2017-09-18T02:16:20.044Z,48.90
2017-09-18T02:18:47.909Z,48.90
2017-09-18T02:21:15.731Z,48.98
2017-09-18T02:23:43.362Z,49.62
2017-09-18T02:26:10.934Z,49.68
2017-09-18T02:28:38.502Z,49.66
2017-09-18T02:31:06.419Z,49.75
2017-09-18T02:33:33.992Z,49.42
2017-09-18T02:36:01.613Z,49.62
2017-09-18T02:38:29.238Z,49.59
2017-09-18T02:40:56.769Z,49.63
2017-09-18T02:43:24.566Z,49.46
2017-09-18T02:45:52.339Z,49.75
2017-09-18T02:48:20.114Z,49.57
2017-09-18T02:50:47.908Z,49.41
2017-09-18T02:53:15.536Z,49.28
2017-09-18T02:55:43.079Z,49.45
2017-09-18T02:58:10.651Z,49.58
2017-09-18T03:00:38.224Z,49.46
2017-09-18T03:03:05.850Z,49.87
2017-09-18T03:05:33.385Z,49.45
2017-09-18T03:08:01.029Z,49.29
2017-09-18T03:10:28.656Z,49.47
2017-09-18T03:12:56.207Z,49.50
2017-09-18T03:15:23.794Z,49.47
2017-09-18T03:17:51.340Z,49.32
2017-09-18T03:20:18.873Z,49.49
2017-09-18T03:22:46.480Z,49.29
2017-09-18T03:25:14.040Z,48.99
2017-09-18T03:27:41.608Z,49.17
2017-09-18T03:30:10.615Z,49.50
2017-09-18T03:32:38.213Z,49.59
2017-09-18T03:35:06.067Z,49.50
2017-09-18T03:37:33.870Z,49.45
2017-09-18T03:40:01.457Z,49.76
2017-09-18T03:42:29.206Z,49.63
2017-09-18T03:44:56.834Z,49.75
2017-09-18T03:47:24.396Z,49.61
2017-09-18T03:49:51.955Z,49.29
2017-09-18T03:52:19.585Z,49.21
2017-09-18T03:54:47.183Z,49.37
2017-09-18T03:57:14.707Z,49.50
2017-09-18T03:59:42.383Z,49.56
2017-09-18T04:02:10.738Z,49.20
2017-09-18T04:04:38.553Z,49.14
2017-09-18T04:07:06.154Z,49.81
2017-09-18T04:09:33.749Z,49.52
2017-09-18T04:12:01.969Z,49.33
2017-09-18T04:14:29.525Z,48.89
2017-09-18T04:16:57.100Z,47.92
2017-09-18T04:19:25.618Z,47.79
2017-09-18T04:21:53.232Z,48.86
2017-09-18T04:24:21.038Z,48.33
2017-09-18T04:26:48.586Z,47.87
2017-09-18T04:29:16.098Z,45.86
2017-09-18T04:31:43.862Z,47.80
2017-09-18T04:34:11.461Z,48.75
2017-09-18T04:36:39.010Z,46.12
2017-09-18T04:39:06.603Z,47.19
2017-09-18T04:41:34.138Z,45.42
2017-09-18T04:44:01.666Z,46.13
2017-09-18T04:46:29.293Z,45.86
2017-09-18T04:48:56.835Z,44.32
2017-09-18T04:51:24.448Z,43.33
2017-09-18T04:53:52.019Z,43.89
2017-09-18T04:56:19.617Z,43.77
2017-09-18T04:58:47.206Z,41.62
2017-09-18T05:01:14.815Z,42.86
2017-09-18T05:03:42.352Z,41.69
2017-09-18T05:06:10.260Z,40.17
2017-09-18T05:08:37.793Z,39.70
2017-09-18T05:11:05.963Z,40.33
2017-09-18T05:13:33.492Z,40.00
2017-09-18T05:16:01.283Z,38.44
2017-09-18T05:18:28.872Z,38.15
2017-09-18T05:20:56.397Z,40.44
2017-09-18T05:23:23.990Z,39.91
2017-09-18T05:25:51.520Z,39.77
2017-09-18T05:28:19.065Z,38.64
2017-09-18T05:30:46.642Z,38.43
2017-09-18T05:33:14.168Z,35.43
2017-09-18T05:35:41.742Z,34.82
2017-09-18T05:38:09.300Z,35.96
2017-09-18T05:40:36.807Z,36.56
2017-09-18T05:43:04.697Z,35.56
2017-09-18T05:45:32.323Z,33.47
2017-09-18T05:47:59.847Z,33.93
2017-09-18T05:50:27.373Z,33.51
2017-09-18T05:52:54.954Z,33.61
2017-09-18T05:55:22.537Z,33.09
2017-09-18T05:57:50.104Z,32.65
2017-09-18T06:00:17.683Z,33.49
2017-09-18T06:02:45.199Z,31.88
2017-09-18T06:05:12.702Z,33.18
2017-09-18T06:07:40.486Z,31.89
2017-09-18T06:10:08.022Z,31.90
2017-09-18T06:12:35.770Z,32.50
2017-09-18T06:15:03.349Z,33.10
2017-09-18T06:17:30.975Z,31.08
2017-09-18T06:19:58.484Z,32.03
2017-09-18T06:22:26.044Z,31.14
2017-09-18T06:24:54.660Z,30.01
2017-09-18T06:27:22.217Z,30.83
2017-09-18T06:29:49.767Z,32.10
2017-09-18T06:32:17.337Z,31.67
2017-09-18T06:34:44.883Z,31.49
2017-09-18T06:37:12.404Z,30.86
2017-09-18T06:39:40.035Z,31.06
2017-09-18T06:42:08.067Z,31.78
2017-09-18T06:44:35.589Z,31.81
2017-09-18T06:47:03.161Z,29.62
2017-09-18T06:49:30.718Z,29.64
2017-09-18T06:51:58.253Z,28.49
2017-09-18T06:54:25.899Z,28.63
2017-09-18T06:56:53.437Z,29.43
2017-09-18T06:59:20.953Z,30.08
2017-09-18T07:01:48.584Z,29.61
2017-09-18T07:04:16.152Z,29.29
2017-09-18T07:06:43.691Z,28.55
2017-09-18T07:09:11.251Z,29.50
2017-09-18T07:11:38.765Z,28.54
2017-09-18T07:14:06.357Z,27.66
2017-09-18T07:16:33.938Z,27.40
2017-09-18T07:19:01.704Z,27.52
2017-09-18T07:21:29.222Z,27.37
2017-09-18T07:23:56.834Z,26.44
2017-09-18T07:26:24.394Z,27.85
2017-09-18T07:28:51.967Z,27.73
2017-09-18T07:31:19.554Z,27.38
2017-09-18T07:33:47.161Z,26.80
2017-09-18T07:36:14.676Z,26.59
2017-09-18T07:38:42.237Z,26.79
2017-09-18T07:41:09.777Z,26.81
2017-09-18T07:43:37.597Z,26.35
2017-09-18T07:46:05.206Z,26.42
2017-09-18T07:48:32.832Z,25.66
2017-09-18T07:51:00.338Z,25.97
2017-09-18T07:53:28.106Z,26.10
2017-09-18T07:55:55.875Z,25.46
2017-09-18T07:58:23.618Z,25.06
2017-09-18T08:00:51.159Z,24.91
2017-09-18T08:03:19.159Z,24.82
2017-09-18T08:05:46.691Z,24.50
2017-09-18T08:08:14.339Z,25.14
2017-09-18T08:10:41.935Z,25.13
2017-09-18T08:13:09.800Z,24.68
2017-09-18T08:15:37.360Z,23.66
2017-09-18T08:18:04.927Z,23.57
2017-09-18T08:20:32.483Z,23.53
2017-09-18T08:23:00.103Z,22.41
2017-09-18T08:25:27.624Z,23.07
2017-09-18T08:27:55.202Z,22.58
2017-09-18T08:30:23.980Z,22.61
2017-09-18T08:32:51.546Z,22.67
2017-09-18T08:35:19.067Z,22.75
2017-09-18T08:37:46.644Z,22.47
2017-09-18T08:40:14.555Z,22.75
2017-09-18T08:42:42.330Z,23.63
2017-09-18T08:45:09.965Z,24.13
2017-09-18T08:47:37.594Z,23.24
2017-09-18T08:50:05.194Z,23.05
2017-09-18T08:52:32.766Z,24.36
2017-09-18T08:55:00.371Z,25.09
2017-09-18T08:57:28.256Z,24.42
2017-09-18T08:59:55.853Z,25.01
2017-09-18T09:02:23.442Z,24.84
2017-09-18T09:04:50.981Z,23.79
2017-09-18T09:07:18.551Z,24.13
2017-09-18T09:09:46.164Z,23.80
2017-09-18T09:12:13.769Z,23.45
2017-09-18T09:14:41.314Z,23.83
2017-09-18T09:17:08.879Z,23.62
2017-09-18T09:19:36.441Z,24.26
2017-09-18T09:22:03.947Z,24.62
2017-09-18T09:24:31.530Z,24.51
2017-09-18T09:26:59.344Z,24.44
2017-09-18T09:29:26.918Z,24.61
2017-09-18T09:31:54.501Z,24.55
2017-09-18T09:34:22.018Z,24.52
2017-09-18T09:36:49.542Z,23.96
2017-09-18T09:39:17.248Z,24.03
2017-09-18T09:41:45.074Z,24.83
2017-09-18T09:44:12.632Z,25.04
2017-09-18T09:46:40.242Z,24.78
2017-09-18T09:49:07.765Z,25.56
2017-09-18T09:51:35.296Z,25.25
2017-09-18T09:54:02.862Z,25.29
2017-09-18T09:56:30.410Z,24.39
2017-09-18T09:58:57.983Z,24.21
2017-09-18T10:01:25.599Z,24.15
2017-09-18T10:03:53.137Z,24.21
2017-09-18T10:06:20.723Z,24.69
2017-09-18T10:08:48.425Z,24.67
2017-09-18T10:11:15.954Z,26.11
2017-09-18T10:13:43.522Z,25.68
2017-09-18T10:16:11.089Z,24.90
2017-09-18T10:18:38.631Z,24.08
2017-09-18T10:21:06.135Z,24.21
2017-09-18T10:23:33.725Z,24.98
2017-09-18T10:26:01.233Z,25.74
2017-09-18T10:28:28.837Z,25.83
2017-09-18T10:30:56.420Z,25.03
2017-09-18T10:33:23.945Z,25.43
2017-09-18T10:35:51.804Z,25.28
2017-09-18T10:38:19.469Z,24.87
2017-09-18T10:40:47.259Z,25.11
2017-09-18T10:43:14.785Z,25.45
2017-09-18T10:45:42.362Z,24.82
2017-09-18T10:48:09.925Z,24.86
2017-09-18T10:50:37.490Z,24.91
2017-09-18T10:53:05.086Z,24.69
2017-09-18T10:55:32.826Z,25.02
2017-09-18T10:58:00.416Z,24.56
2017-09-18T11:00:28.098Z,24.55
2017-09-18T11:02:55.629Z,24.49
2017-09-18T11:05:23.397Z,24.67
2017-09-18T11:07:50.959Z,25.24
2017-09-18T11:10:18.470Z,25.39
2017-09-18T11:12:46.286Z,25.14
2017-09-18T11:15:13.873Z,25.20
2017-09-18T11:17:41.406Z,24.65
2017-09-18T11:20:08.920Z,24.40
2017-09-18T11:22:36.489Z,24.43
2017-09-18T11:25:04.072Z,24.77
2017-09-18T11:27:31.610Z,23.98
2017-09-18T11:29:59.175Z,24.51
2017-09-18T11:32:26.743Z,24.05
2017-09-18T11:34:54.265Z,24.87
2017-09-18T11:37:21.821Z,25.80
2017-09-18T11:39:49.399Z,25.63
2017-09-18T11:42:16.910Z,25.41
2017-09-18T11:44:44.471Z,25.53
2017-09-18T11:47:12.109Z,25.35
2017-09-18T11:49:39.637Z,25.02
2017-09-18T11:52:07.153Z,24.51
2017-09-18T11:54:34.712Z,24.44
2017-09-18T11:57:02.234Z,24.18
2017-09-18T11:59:30.293Z,24.24
2017-09-18T12:01:57.874Z,24.19
2017-09-18T12:04:25.397Z,23.82
2017-09-18T12:06:52.905Z,23.94
2017-09-18T12:09:20.516Z,24.59
2017-09-18T12:11:48.058Z,24.50
2017-09-18T12:14:15.879Z,24.79
2017-09-18T12:16:43.494Z,24.19
2017-09-18T12:19:11.298Z,25.36
2017-09-18T12:21:38.908Z,24.63
2017-09-18T12:24:06.493Z,24.03
2017-09-18T12:26:34.450Z,23.94
2017-09-18T12:29:02.726Z,24.02
2017-09-18T12:31:31.043Z,24.81
2017-09-18T12:33:58.670Z,24.66
2017-09-18T12:36:26.647Z,23.91
2017-09-18T12:38:54.257Z,24.41
2017-09-18T12:41:21.784Z,24.19
2017-09-18T12:43:50.001Z,24.17
2017-09-18T12:46:17.556Z,24.23
2017-09-18T12:48:45.148Z,24.88
2017-09-18T12:51:13.226Z,24.84
2017-09-18T12:53:40.788Z,23.69
2017-09-18T12:56:08.325Z,23.92
2017-09-18T12:58:35.904Z,24.90
2017-09-18T13:01:03.489Z,23.97
2017-09-18T13:03:31.104Z,23.20
2017-09-18T13:05:58.686Z,24.98
2017-09-18T13:08:26.273Z,24.49
2017-09-18T13:10:53.798Z,25.16
2017-09-18T13:13:21.297Z,25.23
2017-09-18T13:15:49.057Z,24.93
2017-09-18T13:18:16.626Z,24.83
2017-09-18T13:20:44.553Z,25.21
2017-09-18T13:23:12.167Z,24.44
2017-09-18T13:25:39.914Z,24.63
2017-09-18T13:28:07.500Z,24.73
2017-09-18T13:30:35.292Z,24.66
2017-09-18T13:33:02.817Z,25.04
2017-09-18T13:35:30.657Z,25.19
2017-09-18T13:37:58.203Z,24.66
2017-09-18T13:40:25.724Z,24.77
2017-09-18T13:42:53.341Z,24.81
2017-09-18T13:45:20.975Z,24.53
2017-09-18T13:47:48.719Z,24.35
2017-09-18T13:50:16.276Z,24.97
2017-09-18T13:52:43.835Z,25.40
2017-09-18T13:55:11.433Z,25.27
2017-09-18T13:57:38.941Z,24.74
2017-09-18T14:00:06.876Z,24.81
2017-09-18T14:02:34.412Z,25.48
2017-09-18T14:05:01.958Z,25.09
2017-09-18T14:07:29.568Z,25.39
2017-09-18T14:09:57.108Z,25.44
2017-09-18T14:12:24.627Z,25.35
2017-09-18T14:14:52.167Z,25.64
2017-09-18T14:17:19.740Z,25.74
2017-09-18T14:19:47.323Z,25.95
2017-09-18T14:22:14.876Z,25.93
2017-09-18T14:24:42.456Z,26.21
2017-09-18T14:27:10.038Z,25.60
2017-09-18T14:29:37.615Z,26.27
2017-09-18T14:32:05.985Z,26.92
2017-09-18T14:34:33.546Z,26.65
2017-09-18T14:37:01.072Z,26.27
2017-09-18T14:39:28.627Z,26.62
2017-09-18T14:41:56.402Z,26.87
2017-09-18T14:44:23.922Z,26.53
2017-09-18T14:46:51.497Z,26.69
2017-09-18T14:49:19.082Z,26.80
2017-09-18T14:51:46.689Z,27.07
2017-09-18T14:54:14.242Z,26.79
2017-09-18T14:56:41.785Z,27.22
2017-09-18T14:59:09.297Z,27.62
2017-09-18T15:01:36.872Z,27.11
2017-09-18T15:04:04.636Z,27.23
2017-09-18T15:06:32.190Z,27.10
2017-09-18T15:08:59.994Z,27.33
2017-09-18T15:11:27.523Z,27.17
2017-09-18T15:13:55.052Z,28.06
2017-09-18T15:16:22.624Z,29.05
2017-09-18T15:18:50.176Z,27.41
2017-09-18T15:21:17.717Z,27.84
2017-09-18T15:23:45.312Z,27.33
2017-09-18T15:26:12.842Z,27.75
2017-09-18T15:28:40.391Z,27.67
2017-09-18T15:31:07.981Z,27.43
2017-09-18T15:33:35.848Z,27.65
2017-09-18T15:36:04.023Z,27.71
2017-09-18T15:38:31.635Z,27.73
2017-09-18T15:40:59.846Z,27.88
2017-09-18T15:43:27.472Z,28.06
2017-09-18T15:45:55.089Z,28.17
2017-09-18T15:48:22.683Z,28.28
2017-09-18T15:50:50.429Z,28.45
2017-09-18T15:53:18.022Z,28.37
2017-09-18T15:55:45.603Z,28.59
2017-09-18T15:58:13.223Z,28.53
2017-09-18T16:00:40.813Z,28.52
2017-09-18T16:03:08.366Z,29.26
2017-09-18T16:05:35.915Z,29.20
2017-09-18T16:08:03.534Z,28.95
2017-09-18T16:10:31.082Z,29.03
2017-09-18T16:12:58.646Z,29.10
2017-09-18T16:15:26.223Z,29.46
2017-09-18T16:17:53.755Z,29.48
2017-09-18T16:20:21.290Z,29.27
2017-09-18T16:22:48.923Z,29.46
2017-09-18T16:25:16.848Z,29.75
2017-09-18T16:27:44.366Z,29.81
2017-09-18T16:30:12.848Z,29.91
2017-09-18T16:32:40.419Z,30.04
2017-09-18T16:35:08.179Z,30.90
2017-09-18T16:37:35.752Z,30.35
2017-09-18T16:40:03.546Z,31.42
2017-09-18T16:42:31.170Z,30.53
2017-09-18T16:44:58.770Z,30.49
2017-09-18T16:47:26.342Z,30.10
2017-09-18T16:49:53.924Z,30.81
2017-09-18T16:52:21.539Z,30.93
2017-09-18T16:54:49.122Z,30.81
2017-09-18T16:57:16.677Z,30.85
2017-09-18T16:59:44.330Z,31.02
2017-09-18T17:02:11.910Z,31.25
2017-09-18T17:04:39.473Z,31.45
2017-09-18T17:07:07.047Z,31.65
2017-09-18T17:09:34.671Z,31.28
2017-09-18T17:12:02.223Z,31.82
2017-09-18T17:14:29.796Z,32.11
2017-09-18T17:16:57.419Z,31.96
2017-09-18T17:19:25.011Z,31.70
2017-09-18T17:21:52.642Z,31.89
2017-09-18T17:24:20.346Z,31.78
2017-09-18T17:26:48.102Z,31.90
2017-09-18T17:29:15.734Z,31.81
2017-09-18T17:31:43.339Z,31.86
2017-09-18T17:34:11.127Z,31.71
2017-09-18T17:36:38.768Z,32.18
2017-09-18T17:39:14.524Z,32.58
2017-09-18T17:41:42.103Z,32.56
2017-09-18T17:44:09.720Z,32.49
2017-09-18T17:46:37.303Z,32.36
2017-09-18T17:49:05.152Z,32.18
2017-09-18T17:51:32.713Z,32.53
2017-09-18T17:54:00.304Z,32.70
2017-09-18T17:56:27.856Z,32.53
2017-09-18T17:58:55.532Z,32.63
2017-09-18T18:01:23.139Z,32.96
2017-09-18T18:03:51.071Z,32.96
2017-09-18T18:06:18.646Z,32.93
2017-09-18T18:08:46.275Z,33.00
2017-09-18T18:11:13.845Z,33.14
2017-09-18T18:13:41.471Z,33.10
2017-09-18T18:16:09.063Z,33.41
2017-09-18T18:18:36.623Z,33.72
2017-09-18T18:21:04.217Z,33.47
2017-09-18T18:23:31.803Z,33.83
2017-09-18T18:25:59.390Z,33.49
2017-09-18T18:28:26.989Z,33.79
2017-09-18T18:30:54.635Z,34.20
2017-09-18T18:33:22.799Z,34.28
2017-09-18T18:35:50.373Z,34.15
2017-09-18T18:38:17.991Z,34.26
2017-09-18T18:40:45.549Z,34.56
2017-09-18T18:43:13.999Z,34.58
2017-09-18T18:45:41.606Z,35.30
2017-09-18T18:48:09.457Z,35.04
2017-09-18T18:50:38.075Z,34.95
2017-09-18T18:53:06.497Z,35.09
2017-09-18T18:55:34.051Z,35.10
2017-09-18T18:58:01.704Z,34.65
2017-09-18T19:00:29.298Z,34.55
2017-09-18T19:02:56.899Z,34.74
2017-09-18T19:05:24.417Z,34.89
2017-09-18T19:07:51.974Z,35.28
2017-09-18T19:10:19.787Z,35.47
2017-09-18T19:12:47.348Z,35.55
2017-09-18T19:15:14.953Z,35.59
2017-09-18T19:17:42.893Z,36.17
2017-09-18T19:20:10.476Z,35.90
2017-09-18T19:22:39.046Z,35.93
2017-09-18T19:25:06.580Z,36.22
2017-09-18T19:27:34.349Z,35.77
2017-09-18T19:30:01.994Z,35.70
2017-09-18T19:32:29.616Z,35.94
2017-09-18T19:34:57.378Z,36.22
2017-09-18T19:37:24.963Z,36.35
2017-09-18T19:39:52.571Z,36.54
2017-09-18T19:42:20.097Z,36.79
2017-09-18T19:44:47.890Z,37.61
2017-09-18T19:47:15.600Z,37.54
2017-09-18T19:49:43.233Z,37.43
2017-09-18T19:52:10.851Z,37.78
2017-09-18T19:54:38.446Z,38.01
2017-09-18T19:57:05.996Z,38.26
2017-09-18T19:59:33.600Z,38.39
2017-09-18T20:02:01.185Z,38.03
2017-09-18T20:04:28.759Z,38.38
2017-09-18T20:06:56.311Z,38.58
2017-09-18T20:09:23.931Z,38.84
2017-09-18T20:11:51.526Z,38.41
2017-09-18T20:14:19.323Z,38.33
2017-09-18T20:16:46.902Z,38.91
2017-09-18T20:19:14.477Z,38.89
2017-09-18T20:21:42.049Z,39.45
2017-09-18T20:24:09.607Z,39.63
2017-09-18T20:26:38.144Z,39.61
2017-09-18T20:29:05.675Z,39.41
2017-09-18T20:31:33.300Z,39.38
2017-09-18T20:34:00.881Z,39.56
2017-09-18T20:36:28.698Z,39.21
2017-09-18T20:38:56.516Z,39.42
2017-09-18T20:41:24.177Z,39.59
2017-09-18T20:43:53.232Z,39.57
2017-09-18T20:46:20.867Z,40.06
2017-09-18T20:48:48.453Z,40.30
2017-09-18T20:51:16.030Z,40.62
2017-09-18T20:53:43.646Z,40.69
2017-09-18T20:56:11.302Z,40.80
2017-09-18T20:58:39.046Z,40.87
2017-09-18T21:01:06.642Z,41.08
2017-09-18T21:03:34.209Z,41.02
2017-09-18T21:06:01.811Z,41.37
2017-09-18T21:08:29.505Z,41.43
2017-09-18T21:10:57.061Z,41.46
2017-09-18T21:13:24.613Z,41.75
2017-09-18T21:15:52.201Z,41.64
2017-09-18T21:18:19.748Z,41.56
2017-09-18T21:20:47.307Z,41.24
2017-09-18T21:23:14.906Z,41.86
2017-09-18T21:25:42.482Z,41.81
2017-09-18T21:28:10.265Z,41.71
2017-09-18T21:30:37.972Z,41.91
2017-09-18T21:33:05.550Z,42.02
2017-09-18T21:35:33.154Z,42.01
2017-09-18T21:38:00.783Z,42.22
2017-09-18T21:40:28.307Z,41.79
2017-09-18T21:42:55.927Z,42.19
2017-09-18T21:45:23.537Z,42.25
2017-09-18T21:47:51.092Z,42.34
2017-09-18T21:50:18.855Z,42.63
2017-09-18T21:52:46.431Z,43.26
2017-09-18T21:55:13.980Z,42.68
2017-09-18T21:57:49.990Z,42.53
2017-09-18T22:00:17.607Z,42.88
2017-09-18T22:02:45.218Z,42.34
2017-09-18T22:05:15.340Z,43.03
2017-09-18T22:07:43.000Z,42.87
2017-09-18T22:10:10.611Z,43.11
2017-09-18T22:12:38.183Z,42.97
2017-09-18T22:15:06.725Z,42.75
2017-09-18T22:17:34.607Z,42.70
2017-09-18T22:23:23.071Z,43.21
2017-09-18T22:25:50.693Z,43.58
2017-09-18T22:28:18.388Z,43.96
2017-09-18T22:30:46.047Z,43.89
2017-09-18T22:33:13.636Z,43.60
2017-09-18T22:35:41.451Z,43.61
2017-09-18T22:38:09.078Z,44.52
2017-09-18T22:40:36.773Z,44.98
2017-09-18T22:43:04.795Z,44.42
2017-09-18T22:45:32.405Z,44.91
2017-09-18T22:47:59.960Z,44.74
2017-09-18T22:50:27.511Z,44.42
2017-09-18T22:52:55.161Z,45.10
2017-09-18T22:55:22.748Z,44.99
2017-09-18T22:57:50.274Z,44.63
2017-09-18T23:00:17.915Z,44.56
2017-09-18T23:02:45.759Z,44.70
2017-09-18T23:05:13.281Z,45.50
2017-09-18T23:07:40.872Z,45.46
2017-09-18T23:10:08.425Z,45.40
2017-09-18T23:12:36.910Z,45.40
2017-09-18T23:15:04.503Z,45.85
2017-09-18T23:17:32.039Z,45.44
2017-09-18T23:19:59.651Z,45.32
2017-09-18T23:22:27.221Z,45.27
2017-09-18T23:24:54.774Z,45.54
2017-09-18T23:27:22.342Z,45.20
2017-09-18T23:29:49.951Z,45.56
2017-09-18T23:32:17.521Z,45.15
2017-09-18T23:34:45.060Z,44.78
2017-09-18T23:37:13.156Z,44.71
2017-09-18T23:39:40.721Z,44.84
2017-09-18T23:42:08.286Z,44.41
2017-09-18T23:44:35.822Z,45.16
2017-09-18T23:47:03.634Z,44.77
2017-09-18T23:49:31.155Z,45.25
2017-09-18T23:51:58.688Z,45.24
2017-09-18T23:54:26.624Z,45.91
2017-09-18T23:56:54.995Z,46.11
2017-09-18T23:59:22.784Z,46.12
